Time;durP1;ratioP1;P1;durP2;ratioP2;P2;SDS_P1;SDS_P2;PMS_P1;PMS_P2;Temp;Humidity;BMP_temperature;BMP_pressure;BME280_temperature;BME280_humidity;BME280_pressure;Samples;Min_cycle;Max_cycle;Signal;HPM_P1;HPM_P2
2021/08/26 00:07:32;;;;;;;26.08;16.90;;;;;;;-145.01;100.00;64805.59;4991693;28;20061;-63
2021/08/26 00:09:58;;;;;;;23.98;16.75;;;;;;;-145.01;100.00;64805.59;4992713;28;20489;-63
2021/08/26 00:12:23;;;;;;;26.55;19.35;;;;;;;-145.01;100.00;64805.59;4992504;28;20050;-63
2021/08/26 00:14:49;;;;;;;30.75;19.42;;;;;;;-145.01;100.00;64805.59;4992950;28;20030;-64
2021/08/26 00:17:14;;;;;;;26.15;18.73;;;;;;;-145.01;100.00;64805.59;4991178;28;20069;-63
2021/08/26 00:19:41;;;;;;;28.42;19.30;;;;;;;-145.01;100.00;64805.59;4992780;28;20366;-63
2021/08/26 00:22:07;;;;;;;27.83;19.63;;;;;;;-145.01;100.00;64805.59;4992432;28;20512;-62
2021/08/26 00:24:32;;;;;;;30.10;18.70;;;;;;;-145.01;100.00;64805.59;4992720;28;20030;-64
2021/08/26 00:26:57;;;;;;;28.40;18.33;;;;;;;-145.01;100.00;64805.59;4992424;28;20399;-65
2021/08/26 00:29:23;;;;;;;28.45;18.20;;;;;;;-145.01;100.00;64805.59;4992445;28;20026;-63
2021/08/26 00:31:48;;;;;;;26.05;17.35;;;;;;;-145.01;100.00;64805.59;4992343;28;20045;-63
2021/08/26 00:34:14;;;;;;;27.10;17.75;;;;;;;-145.01;100.00;64805.59;4993032;28;20034;-63
2021/08/26 00:36:39;;;;;;;25.75;18.25;;;;;;;-145.01;100.00;64805.59;4992435;28;20425;-63
2021/08/26 00:39:04;;;;;;;27.98;18.02;;;;;;;-145.01;100.00;64805.59;4992647;28;20077;-63
2021/08/26 00:41:30;;;;;;;28.50;18.17;;;;;;;-145.01;100.00;64805.59;4992384;28;20552;-63
2021/08/26 00:43:56;;;;;;;32.42;19.52;;;;;;;-145.01;100.00;64805.59;4991339;28;20035;-63
2021/08/26 00:46:21;;;;;;;32.65;19.10;;;;;;;-145.01;100.00;64805.59;4992185;28;20043;-63
2021/08/26 00:48:47;;;;;;;33.28;20.30;;;;;;;-145.01;100.00;64805.59;4992885;28;20022;-63
2021/08/26 00:51:13;;;;;;;29.90;18.42;;;;;;;-145.01;100.00;64805.59;4991726;28;20034;-63
2021/08/26 00:53:39;;;;;;;30.50;19.55;;;;;;;-145.01;100.00;64805.59;4996544;28;20045;-63
2021/08/26 00:56:08;;;;;;;31.92;19.70;;;;;;;-145.01;100.00;64805.59;4995865;28;20428;-63
2021/08/26 00:58:33;;;;;;;34.17;20.35;;;;;;;-145.01;100.00;64805.59;4996129;28;20023;-63
2021/08/26 01:01:01;;;;;;;32.38;19.98;;;;;;;-145.01;100.00;64805.59;4995739;28;20041;-63
2021/08/26 01:03:56;;;;;;;33.05;20.40;;;;;;;-145.01;100.00;64805.59;4995876;28;20037;-64
2021/08/26 01:06:30;;;;;;;39.63;21.42;;;;;;;-145.01;100.00;64805.59;5001448;28;20088;-63
2021/08/26 01:09:05;;;;;;;28.98;18.48;;;;;;;-145.01;100.00;64805.59;4994420;28;20487;-63
2021/08/26 01:11:38;;;;;;;21.70;13.73;;;;;;;-145.01;100.00;64805.59;4994019;28;20129;-63
2021/08/26 01:14:04;;;;;;;23.58;14.55;;;;;;;-145.01;100.00;64805.59;4995834;28;20376;-62
2021/08/26 01:16:29;;;;;;;22.80;15.15;;;;;;;-145.01;100.00;64805.59;4995447;28;20117;-63
2021/08/26 01:18:55;;;;;;;23.83;14.63;;;;;;;-145.01;100.00;64805.59;4996002;28;20034;-64
2021/08/26 01:21:22;;;;;;;22.48;12.95;;;;;;;-145.01;100.00;64805.59;4995393;28;20042;-62
2021/08/26 01:23:58;;;;;;;16.30;10.52;;;;;;;-145.01;100.00;64805.59;4995610;28;20061;-63
2021/08/26 01:26:26;;;;;;;15.02;9.30;;;;;;;-145.01;100.00;64805.59;4994133;28;20034;-63
2021/08/26 01:28:53;;;;;;;13.80;8.70;;;;;;;-145.01;100.00;64805.59;4994197;28;20432;-63
2021/08/26 01:31:19;;;;;;;14.02;8.43;;;;;;;-145.01;100.00;64805.59;4995208;28;20042;-63
2021/08/26 01:33:52;;;;;;;14.40;8.40;;;;;;;-145.01;100.00;64805.59;4994146;28;20389;-63
2021/08/26 01:36:18;;;;;;;14.05;8.60;;;;;;;-145.01;100.00;64805.59;4993694;28;20405;-62
2021/08/26 01:38:44;;;;;;;13.75;8.75;;;;;;;-145.01;100.00;64805.59;4994112;28;20030;-63
2021/08/26 01:41:09;;;;;;;14.60;8.27;;;;;;;-145.01;100.00;64805.59;4995034;28;20121;-63
2021/08/26 01:43:35;;;;;;;15.20;8.90;;;;;;;-145.01;100.00;64805.59;4994060;28;20026;-63
2021/08/26 01:46:00;;;;;;;15.15;8.98;;;;;;;-145.01;100.00;64805.59;4994732;28;20042;-63
2021/08/26 01:48:25;;;;;;;13.68;8.90;;;;;;;-145.01;100.00;64805.59;4994134;28;20026;-62
2021/08/26 01:50:51;;;;;;;13.25;8.73;;;;;;;-145.01;100.00;64805.59;4994605;28;20062;-64
2021/08/26 01:53:17;;;;;;;15.70;9.75;;;;;;;-145.01;100.00;64805.59;4977601;28;20076;-65
2021/08/26 01:55:43;;;;;;;14.93;8.50;;;;;;;-145.01;100.00;64805.59;4994727;28;20057;-62
2021/08/26 01:58:09;;;;;;;14.00;8.82;;;;;;;-145.01;100.00;64805.59;4995168;28;20129;-65
2021/08/26 02:00:35;;;;;;;14.93;7.70;;;;;;;-145.01;100.00;64805.59;4994866;28;20038;-64
2021/08/26 02:03:00;;;;;;;14.35;7.93;;;;;;;-145.01;100.00;64805.59;4993937;28;20496;-62
2021/08/26 02:05:26;;;;;;;9.32;6.82;;;;;;;-145.01;100.00;64805.59;4993551;28;20069;-62
2021/08/26 02:07:53;;;;;;;15.80;7.45;;;;;;;-145.01;100.00;64805.59;4994768;28;20026;-64
2021/08/26 02:10:18;;;;;;;10.23;6.80;;;;;;;-145.01;100.00;64805.59;4994146;28;20042;-64
2021/08/26 02:12:44;;;;;;;11.82;6.38;;;;;;;-145.01;100.00;64805.59;4994860;28;20019;-63
2021/08/26 02:15:09;;;;;;;12.80;6.32;;;;;;;-145.01;100.00;64805.59;4994506;28;20034;-64
2021/08/26 02:17:35;;;;;;;10.25;6.57;;;;;;;-145.01;100.00;64805.59;4994575;28;20046;-64
2021/08/26 02:20:01;;;;;;;10.73;5.88;;;;;;;-145.01;100.00;64805.59;4994596;28;20026;-64
2021/08/26 02:22:26;;;;;;;7.95;5.00;;;;;;;-145.01;100.00;64805.59;4994147;28;20055;-63
2021/08/26 02:24:52;;;;;;;9.77;5.10;;;;;;;-145.01;100.00;64805.59;4994614;28;20022;-63
2021/08/26 02:27:17;;;;;;;8.73;4.70;;;;;;;-145.01;100.00;64805.59;4993816;28;20065;-64
2021/08/26 02:29:42;;;;;;;8.48;4.78;;;;;;;-145.01;100.00;64805.59;4994538;28;20034;-64
2021/08/26 02:32:08;;;;;;;6.93;4.10;;;;;;;-145.01;100.00;64805.59;4993925;28;20046;-63
2021/08/26 02:34:33;;;;;;;6.65;4.38;;;;;;;-145.01;100.00;64805.59;4994461;28;20023;-63
2021/08/26 02:36:59;;;;;;;6.80;3.80;;;;;;;-145.01;100.00;64805.59;4993533;28;20598;-63
2021/08/26 02:39:24;;;;;;;6.03;3.42;;;;;;;-145.01;100.00;64805.59;4994275;28;20026;-64
2021/08/26 02:41:50;;;;;;;5.78;3.38;;;;;;;-145.01;100.00;64805.59;4993884;28;20041;-64
2021/08/26 02:44:15;;;;;;;5.55;3.50;;;;;;;-145.01;100.00;64805.59;4994220;28;20022;-64
2021/08/26 02:46:40;;;;;;;6.60;3.72;;;;;;;-145.01;100.00;64805.59;4993890;28;20039;-64
2021/08/26 02:49:06;;;;;;;5.68;3.58;;;;;;;-145.01;100.00;64805.59;4994180;28;20034;-64
2021/08/26 02:51:31;;;;;;;6.60;3.50;;;;;;;-145.01;100.00;64805.59;4992418;28;20034;-64
2021/08/26 02:53:57;;;;;;;9.38;3.50;;;;;;;-145.01;100.00;64805.59;4993995;28;20038;-64
2021/08/26 02:56:22;;;;;;;5.35;3.28;;;;;;;-145.01;100.00;64805.59;4993740;28;20038;-64
2021/08/26 02:58:47;;;;;;;6.85;3.38;;;;;;;-145.01;100.00;64805.59;4993945;28;20085;-64
2021/08/26 03:01:13;;;;;;;5.90;3.45;;;;;;;-145.01;100.00;64805.59;4992260;28;20046;-64
2021/08/26 03:03:38;;;;;;;8.23;3.92;;;;;;;-145.01;100.00;64805.59;4993923;28;20026;-64
2021/08/26 03:06:04;;;;;;;8.35;3.92;;;;;;;-145.01;100.00;64805.59;4993451;28;20038;-64
2021/08/26 03:08:32;;;;;;;9.35;3.88;;;;;;;-145.01;100.00;64805.59;4993805;28;20041;-63
2021/08/26 03:10:58;;;;;;;7.15;3.15;;;;;;;-145.01;100.00;64805.59;4992129;28;20516;-64
2021/08/26 03:13:24;;;;;;;7.60;3.80;;;;;;;-145.01;100.00;64805.59;4993774;28;20027;-64
2021/08/26 03:15:49;;;;;;;9.30;3.40;;;;;;;-145.01;100.00;64805.59;4993323;28;20038;-64
2021/08/26 03:18:15;;;;;;;5.00;3.10;;;;;;;-145.01;100.00;64805.59;4993781;28;20045;-64
2021/08/26 03:20:40;;;;;;;7.15;3.10;;;;;;;-145.01;100.00;64805.59;4993295;28;20030;-64
2021/08/26 03:23:06;;;;;;;6.72;3.40;;;;;;;-145.01;100.00;64805.59;4993849;28;20041;-64
2021/08/26 03:25:31;;;;;;;6.90;3.30;;;;;;;-145.01;100.00;64805.59;4993124;28;20034;-65
2021/08/26 03:27:57;;;;;;;4.28;2.70;;;;;;;-145.01;100.00;64805.59;4993602;28;20034;-64
2021/08/26 03:30:22;;;;;;;5.35;2.95;;;;;;;-145.01;100.00;64805.59;4993147;28;20465;-64
2021/08/26 03:32:48;;;;;;;7.00;3.17;;;;;;;-145.01;100.00;64805.59;4993419;28;20461;-64
2021/08/26 03:35:13;;;;;;;5.35;2.80;;;;;;;-145.01;100.00;64805.59;4993107;28;20026;-65
2021/08/26 03:37:39;;;;;;;5.45;3.20;;;;;;;-145.01;100.00;64805.59;4993676;28;20370;-64
2021/08/26 03:40:04;;;;;;;7.05;3.03;;;;;;;-145.01;100.00;64805.59;4992830;28;20535;-64
2021/08/26 03:42:30;;;;;;;9.88;3.28;;;;;;;-145.01;100.00;64805.59;4993546;28;20081;-64
2021/08/26 03:44:55;;;;;;;6.30;3.10;;;;;;;-145.01;100.00;64805.59;4993433;28;20022;-64
2021/08/26 03:47:21;;;;;;;4.25;2.22;;;;;;;-145.01;100.00;64805.59;4991512;28;20038;-64
2021/08/26 03:49:46;;;;;;;4.97;2.78;;;;;;;-145.01;100.00;64805.59;4993209;28;20401;-64
2021/08/26 03:52:12;;;;;;;3.83;2.38;;;;;;;-145.01;100.00;64805.59;4992938;28;20042;-64
2021/08/26 03:54:37;;;;;;;5.13;3.22;;;;;;;-145.01;100.00;64805.59;4992133;28;20374;-64
2021/08/26 03:57:02;;;;;;;4.45;2.40;;;;;;;-145.01;100.00;64805.59;4993010;28;20042;-64
2021/08/26 03:59:28;;;;;;;2.83;1.83;;;;;;;-145.01;100.00;64805.59;4993190;28;20023;-64
2021/08/26 04:01:53;;;;;;;3.40;1.90;;;;;;;-145.01;100.00;64805.59;4993162;28;20046;-64
2021/08/26 04:04:19;;;;;;;3.13;1.80;;;;;;;-145.01;100.00;64805.59;4991950;28;20037;-64
2021/08/26 04:06:44;;;;;;;3.10;1.65;;;;;;;-145.01;100.00;64805.59;4992969;28;20045;-64
2021/08/26 04:09:09;;;;;;;2.83;1.40;;;;;;;-145.01;100.00;64805.59;4993012;28;20489;-64
2021/08/26 04:11:35;;;;;;;3.92;1.55;;;;;;;-145.01;100.00;64805.59;4991514;28;20092;-64
2021/08/26 04:14:00;;;;;;;3.72;1.73;;;;;;;-145.01;100.00;64805.59;4993014;28;20026;-64
2021/08/26 04:16:26;;;;;;;2.85;1.50;;;;;;;-145.01;100.00;64805.59;4992848;28;20031;-64
2021/08/26 04:18:51;;;;;;;3.38;1.80;;;;;;;-145.01;100.00;64805.59;4993113;28;20037;-64
2021/08/26 04:21:18;;;;;;;3.35;1.75;;;;;;;-145.01;100.00;64805.59;4991560;28;20050;-64
2021/08/26 04:23:43;;;;;;;5.47;1.98;;;;;;;-145.01;100.00;64805.59;4993083;28;20023;-64
2021/08/26 04:26:09;;;;;;;4.07;2.22;;;;;;;-145.01;100.00;64805.59;4993485;28;20521;-64
2021/08/26 04:28:35;;;;;;;3.88;2.10;;;;;;;-145.01;100.00;64805.59;4996138;28;20102;-64
2021/08/26 04:31:00;;;;;;;2.15;1.63;;;;;;;-145.01;100.00;64805.59;4996468;28;20042;-63
2021/08/26 04:33:25;;;;;;;3.20;1.95;;;;;;;-145.01;100.00;64805.59;4996720;28;20060;-63
2021/08/26 04:35:51;;;;;;;4.47;2.10;;;;;;;-145.01;100.00;64805.59;4995799;28;20037;-63
2021/08/26 04:38:16;;;;;;;6.47;2.97;;;;;;;-145.01;100.00;64805.59;4996714;28;20027;-63
2021/08/26 04:40:42;;;;;;;8.43;3.70;;;;;;;-145.01;100.00;64805.59;4994811;28;20034;-64
2021/08/26 04:43:07;;;;;;;9.40;3.80;;;;;;;-145.01;100.00;64805.59;4996605;28;20022;-63
2021/08/26 04:45:33;;;;;;;9.95;4.05;;;;;;;-145.01;100.00;64805.59;4996047;28;20057;-63
2021/08/26 04:47:58;;;;;;;9.98;5.10;;;;;;;-145.01;100.00;64805.59;4995249;28;20536;-63
2021/08/26 04:50:24;;;;;;;12.43;4.65;;;;;;;-145.01;100.00;64805.59;4995985;28;20060;-63
2021/08/26 04:52:49;;;;;;;11.52;4.88;;;;;;;-145.01;100.00;64805.59;4996389;28;20023;-63
2021/08/26 04:55:15;;;;;;;15.38;4.82;;;;;;;-145.01;100.00;64805.59;4996099;28;20065;-63
2021/08/26 04:57:40;;;;;;;15.38;4.82;;;;;;;-145.01;100.00;64805.59;4996451;28;20488;-63
2021/08/26 05:00:06;;;;;;;9.60;4.57;;;;;;;-145.01;100.00;64805.59;4995844;28;20108;-63
2021/08/26 05:02:31;;;;;;;14.05;5.15;;;;;;;-145.01;100.00;64805.59;4996125;28;20041;-63
2021/08/26 05:04:57;;;;;;;19.67;5.43;;;;;;;-145.01;100.00;64805.59;4996059;28;20345;-63
2021/08/26 05:07:22;;;;;;;13.18;4.88;;;;;;;-145.01;100.00;64805.59;4994293;28;20053;-63
2021/08/26 05:09:48;;;;;;;18.48;5.18;;;;;;;-145.01;100.00;64805.59;4996034;28;20054;-63
2021/08/26 05:12:13;;;;;;;16.90;5.28;;;;;;;-145.01;100.00;64805.59;4995501;28;20053;-65
2021/08/26 05:14:39;;;;;;;20.45;5.70;;;;;;;-145.01;100.00;64805.59;4996053;28;20025;-63
2021/08/26 05:17:05;;;;;;;15.70;5.63;;;;;;;-145.01;100.00;64805.59;4994268;28;20038;-65
2021/08/26 05:19:30;;;;;;;16.35;5.65;;;;;;;-145.01;100.00;64805.59;4996102;28;20477;-65
2021/08/26 05:21:55;;;;;;;16.42;5.07;;;;;;;-145.01;100.00;64805.59;4995592;28;20039;-65
2021/08/26 05:24:21;;;;;;;17.23;5.60;;;;;;;-145.01;100.00;64805.59;4996305;28;20396;-65
2021/08/26 05:26:47;;;;;;;17.77;5.80;;;;;;;-145.01;100.00;64805.59;4961915;28;20046;-65
2021/08/26 05:29:12;;;;;;;18.83;5.63;;;;;;;-145.01;100.00;64805.59;4994807;28;20023;-65
2021/08/26 05:31:38;;;;;;;17.80;6.65;;;;;;;-145.01;100.00;64805.59;4995603;28;20101;-65
2021/08/26 05:34:03;;;;;;;20.52;5.47;;;;;;;-145.01;100.00;64805.59;4995943;28;20034;-64
2021/08/26 05:36:29;;;;;;;27.08;5.90;;;;;;;-145.01;100.00;64805.59;4995424;28;20046;-64
2021/08/26 05:38:54;;;;;;;19.50;6.03;;;;;;;-145.01;100.00;64805.59;4994444;28;20026;-64
2021/08/26 05:41:19;;;;;;;19.55;5.80;;;;;;;-145.01;100.00;64805.59;4995079;28;20050;-63
2021/08/26 05:43:45;;;;;;;19.55;6.78;;;;;;;-145.01;100.00;64805.59;4995501;28;20037;-64
2021/08/26 05:46:10;;;;;;;14.40;6.53;;;;;;;-145.01;100.00;64805.59;4993944;28;20038;-64
2021/08/26 05:48:36;;;;;;;16.83;7.35;;;;;;;-145.01;100.00;64805.59;4995411;28;20026;-64
2021/08/26 05:51:01;;;;;;;19.58;6.70;;;;;;;-145.01;100.00;64805.59;4993689;28;20089;-64
2021/08/26 05:53:27;;;;;;;17.15;7.55;;;;;;;-145.01;100.00;64805.59;4994258;28;20022;-64
2021/08/26 05:55:53;;;;;;;29.75;8.73;;;;;;;-145.01;100.00;64805.59;4995218;28;20085;-64
2021/08/26 05:58:18;;;;;;;27.33;8.68;;;;;;;-145.01;100.00;64805.59;4995302;28;20485;-63
2021/08/26 06:00:44;;;;;;;23.20;8.88;;;;;;;-145.01;100.00;64805.59;4994846;28;20046;-63
2021/08/26 06:03:09;;;;;;;19.70;9.35;;;;;;;-145.01;100.00;64805.59;4995212;28;20428;-63
2021/08/26 06:05:34;;;;;;;25.65;10.20;;;;;;;-145.01;100.00;64805.59;4995076;28;20374;-64
2021/08/26 06:08:00;;;;;;;28.23;11.23;;;;;;;-145.01;100.00;64805.59;4995272;28;20031;-64
2021/08/26 06:10:25;;;;;;;24.02;10.65;;;;;;;-145.01;100.00;64805.59;4994531;28;20452;-64
2021/08/26 06:12:51;;;;;;;29.77;12.18;;;;;;;-145.01;100.00;64805.59;4994937;28;20073;-63
2021/08/26 06:15:16;;;;;;;25.45;11.38;;;;;;;-145.01;100.00;64805.59;4994399;28;20030;-64
2021/08/26 06:17:41;;;;;;;31.55;13.40;;;;;;;-145.01;100.00;64805.59;4994810;28;20026;-63
2021/08/26 06:20:09;;;;;;;41.67;16.02;;;;;;;-145.01;100.00;64805.59;4994404;28;20023;-63
2021/08/26 06:22:34;;;;;;;31.40;14.35;;;;;;;-145.01;100.00;64805.59;4995076;28;20026;-64
2021/08/26 06:25:00;;;;;;;28.40;14.43;;;;;;;-145.01;100.00;64805.59;4994908;28;20110;-63
2021/08/26 06:27:25;;;;;;;36.55;16.83;;;;;;;-145.01;100.00;64805.59;4993044;28;20034;-63
2021/08/26 06:29:51;;;;;;;33.75;15.82;;;;;;;-145.01;100.00;64805.59;4994750;28;20034;-64
2021/08/26 06:32:17;;;;;;;34.35;16.27;;;;;;;-145.01;100.00;64805.59;4994197;28;20461;-63
2021/08/26 06:34:43;;;;;;;35.88;16.67;;;;;;;-145.01;100.00;64805.59;4994454;28;20026;-65
2021/08/26 06:37:08;;;;;;;31.60;17.58;;;;;;;-145.01;100.00;64805.59;4973925;28;20045;-64
2021/08/26 06:39:34;;;;;;;42.63;17.20;;;;;;;-145.01;100.00;64805.59;4977399;28;20038;-64
2021/08/26 06:41:59;;;;;;;36.72;16.17;;;;;;;-145.01;100.00;64805.59;4974262;28;20043;-64
2021/08/26 06:44:25;;;;;;;32.45;15.60;;;;;;;-145.01;100.00;64805.59;4973159;28;20019;-64
2021/08/26 06:46:50;;;;;;;32.33;16.98;;;;;;;-145.01;100.00;64805.59;4974055;28;20046;-64
2021/08/26 06:49:16;;;;;;;39.28;17.27;;;;;;;-145.01;100.00;64805.59;4973174;28;20040;-64
2021/08/26 06:51:41;;;;;;;32.88;17.50;;;;;;;-145.01;100.00;64805.59;4974121;28;20405;-64
2021/08/26 06:54:06;;;;;;;29.73;16.25;;;;;;;-145.01;100.00;64805.59;4974395;28;20026;-64
2021/08/26 06:56:32;;;;;;;36.53;15.55;;;;;;;-145.01;100.00;64805.59;5005264;28;20370;-63
2021/08/26 06:58:57;;;;;;;26.92;14.85;;;;;;;-145.01;100.00;64805.59;4974688;28;20035;-64
2021/08/26 07:01:23;;;;;;;24.73;12.32;;;;;;;-145.01;100.00;64805.59;4974239;28;20047;-63
2021/08/26 07:03:50;;;;;;;25.33;11.98;;;;;;;-145.01;100.00;64805.59;4973439;28;20031;-64
2021/08/26 07:06:16;;;;;;;31.55;11.63;;;;;;;-145.01;100.00;64805.59;4972861;28;20046;-64
2021/08/26 07:08:41;;;;;;;28.45;10.55;;;;;;;-145.01;100.00;64805.59;4974411;28;20018;-64
2021/08/26 07:11:07;;;;;;;24.20;10.43;;;;;;;-145.01;100.00;64805.59;4974292;28;20047;-64
2021/08/26 07:13:32;;;;;;;22.08;9.20;;;;;;;-145.01;100.00;64805.59;5006227;28;20428;-64
2021/08/26 07:15:58;;;;;;;15.07;7.93;;;;;;;-145.01;100.00;64805.59;4974467;28;20196;-64
2021/08/26 07:18:24;;;;;;;17.77;8.57;;;;;;;-145.01;100.00;64805.59;4973227;28;20071;-63
2021/08/26 07:20:50;;;;;;;17.30;7.85;;;;;;;-145.01;100.00;64805.59;4974213;28;20058;-64
2021/08/26 07:23:15;;;;;;;19.33;7.63;;;;;;;-145.01;100.00;64805.59;4974333;28;20130;-63
2021/08/26 07:25:42;;;;;;;21.10;7.78;;;;;;;-145.01;100.00;64805.59;4973953;28;20093;-63
2021/08/26 07:28:07;;;;;;;23.38;7.40;;;;;;;-145.01;100.00;64805.59;4974305;28;20470;-63
2021/08/26 07:30:33;;;;;;;13.45;7.03;;;;;;;-145.01;100.00;64805.59;4972289;28;20131;-63
2021/08/26 07:32:58;;;;;;;15.02;6.00;;;;;;;-145.01;100.00;64805.59;4974181;28;20476;-65
2021/08/26 07:35:24;;;;;;;20.92;6.97;;;;;;;-145.01;100.00;64805.59;4973940;28;20034;-63
2021/08/26 07:37:49;;;;;;;17.20;5.90;;;;;;;-145.01;100.00;64805.59;4974247;28;20027;-63
2021/08/26 07:40:15;;;;;;;22.90;6.35;;;;;;;-145.01;100.00;64805.59;4973810;28;20019;-63
2021/08/26 07:42:40;;;;;;;12.63;5.35;;;;;;;-145.01;100.00;64805.59;4974078;28;20026;-63
2021/08/26 07:45:06;;;;;;;15.43;5.38;;;;;;;-145.01;100.00;64805.59;4973590;28;20118;-63
2021/08/26 07:47:32;;;;;;;15.68;5.43;;;;;;;-145.01;100.00;64805.59;4974074;28;20109;-63
2021/08/26 07:49:57;;;;;;;17.83;5.45;;;;;;;-145.01;100.00;64805.59;4973981;28;20059;-63
2021/08/26 07:52:23;;;;;;;21.38;6.10;;;;;;;-145.01;100.00;64805.59;4973349;28;20054;-63
2021/08/26 07:54:48;;;;;;;15.25;5.45;;;;;;;-145.01;100.00;64805.59;4973867;28;20050;-64
2021/08/26 07:57:14;;;;;;;15.15;4.93;;;;;;;-145.01;100.00;64805.59;4972202;28;20039;-63
2021/08/26 07:59:39;;;;;;;9.75;4.82;;;;;;;-145.01;100.00;64805.59;4973930;28;20027;-63
2021/08/26 08:02:07;;;;;;;11.70;4.57;;;;;;;-145.01;100.00;64805.59;4975776;28;20505;-63
2021/08/26 08:04:32;;;;;;;16.45;5.13;;;;;;;-145.01;100.00;64805.59;4977885;28;20019;-64
2021/08/26 08:06:57;;;;;;;18.00;4.70;;;;;;;-145.01;100.00;64805.59;4977447;28;20105;-64
2021/08/26 08:09:23;;;;;;;13.00;4.28;;;;;;;-145.01;100.00;64805.59;4977800;28;20138;-64
2021/08/26 08:11:48;;;;;;;19.13;4.60;;;;;;;-145.01;100.00;64805.59;4977288;28;20374;-63
2021/08/26 08:14:14;;;;;;;18.98;5.05;;;;;;;-145.01;100.00;64805.59;4977608;28;20031;-63
2021/08/26 08:16:39;;;;;;;13.63;4.80;;;;;;;-145.01;100.00;64805.59;4977191;28;20564;-63
2021/08/26 08:19:05;;;;;;;16.25;4.70;;;;;;;-145.01;100.00;64805.59;4977716;28;20027;-63
2021/08/26 08:21:30;;;;;;;15.55;4.28;;;;;;;-145.01;100.00;64805.59;4977119;28;20480;-63
2021/08/26 08:23:56;;;;;;;15.65;4.30;;;;;;;-145.01;100.00;64805.59;4977527;28;20026;-63
2021/08/26 08:26:21;;;;;;;15.27;3.50;;;;;;;-145.01;100.00;64805.59;4977125;28;20512;-63
2021/08/26 08:28:47;;;;;;;8.30;2.90;;;;;;;-145.01;100.00;64805.59;4977239;28;20389;-64
2021/08/26 08:31:13;;;;;;;11.90;3.63;;;;;;;-145.01;100.00;64805.59;4976720;28;20485;-63
2021/08/26 08:33:38;;;;;;;15.35;3.53;;;;;;;-145.01;100.00;64805.59;4977144;28;20477;-63
2021/08/26 08:36:04;;;;;;;13.32;3.03;;;;;;;-145.01;100.00;64805.59;4976816;28;20046;-63
2021/08/26 08:38:30;;;;;;;12.20;3.20;;;;;;;-145.01;100.00;64805.59;4975823;28;20034;-63
2021/08/26 08:40:55;;;;;;;10.18;2.42;;;;;;;-145.01;100.00;64805.59;4976747;28;20097;-63
2021/08/26 08:43:21;;;;;;;12.18;2.42;;;;;;;-145.01;100.00;64805.59;4992230;28;20027;-64
2021/08/26 08:45:47;;;;;;;12.70;2.92;;;;;;;-145.01;100.00;64805.59;4984177;28;20038;-63
2021/08/26 08:48:12;;;;;;;7.65;2.25;;;;;;;-145.01;100.00;64805.59;4996457;28;20030;-63
2021/08/26 08:50:39;;;;;;;11.38;2.50;;;;;;;-145.01;100.00;64805.59;4994847;28;20035;-63
2021/08/26 08:53:04;;;;;;;9.18;2.42;;;;;;;-145.01;100.00;64805.59;4997039;28;20026;-64
2021/08/26 08:55:30;;;;;;;7.80;2.08;;;;;;;-145.01;100.00;64805.59;4978922;28;20219;-64
2021/08/26 08:57:55;;;;;;;15.13;2.40;;;;;;;-145.01;100.00;64805.59;4995095;28;20465;-64
2021/08/26 09:00:21;;;;;;;17.13;2.60;;;;;;;-145.01;100.00;64805.59;4995159;28;20038;-64
2021/08/26 09:02:46;;;;;;;13.27;2.55;;;;;;;-145.01;100.00;64805.59;4994796;28;20022;-64
2021/08/26 09:05:12;;;;;;;15.43;2.67;;;;;;;-145.01;100.00;64805.59;4995802;28;20034;-64
2021/08/26 09:07:38;;;;;;;16.55;2.90;;;;;;;-145.01;100.00;64805.59;4996127;28;20401;-63
2021/08/26 09:10:04;;;;;;;19.05;3.17;;;;;;;-145.01;100.00;64805.59;4995508;28;20507;-63
2021/08/26 09:12:50;;;;;;;13.57;2.50;;;;;;;-145.01;100.00;64805.59;4995505;28;20045;-63
2021/08/26 09:15:18;;;;;;;7.78;2.35;;;;;;;-145.01;100.00;64805.59;4995565;28;20025;-63
2021/08/26 09:17:45;;;;;;;7.53;2.30;;;;;;;-145.01;100.00;64805.59;4994704;28;20031;-63
2021/08/26 09:20:13;;;;;;;9.77;2.35;;;;;;;-145.01;100.00;64805.59;4994086;28;20030;-63
2021/08/26 09:22:38;;;;;;;9.82;2.20;;;;;;;-145.01;100.00;64805.59;4994533;28;20035;-63
2021/08/26 09:25:04;;;;;;;11.50;2.38;;;;;;;-145.01;100.00;64805.59;4995180;28;20023;-63
2021/08/26 09:27:33;;;;;;;13.70;2.35;;;;;;;-145.01;100.00;64805.59;4994295;28;20532;-63
2021/08/26 09:29:59;;;;;;;7.03;1.90;;;;;;;-145.01;100.00;64805.59;4995486;28;20465;-63
2021/08/26 09:32:41;;;;;;;13.55;2.95;;;;;;;-145.01;100.00;64805.59;4995067;28;20042;-63
2021/08/26 09:35:14;;;;;;;10.38;2.58;;;;;;;-145.01;100.00;64805.59;4995286;28;20113;-63
2021/08/26 09:37:58;;;;;;;19.77;2.63;;;;;;;-145.01;100.00;64805.59;4995342;28;20034;-63
2021/08/26 09:40:28;;;;;;;9.70;3.17;;;;;;;-145.01;100.00;64805.59;4995164;28;20126;-63
2021/08/26 09:42:55;;;;;;;13.48;2.17;;;;;;;-145.01;100.00;64805.59;4994172;28;20354;-63
2021/08/26 09:45:29;;;;;;;10.23;2.15;;;;;;;-145.01;100.00;64805.59;4993731;28;21733;-64
2021/08/26 09:47:58;;;;;;;8.07;2.42;;;;;;;-145.01;100.00;64805.59;4994144;28;20488;-63
2021/08/26 09:50:46;;;;;;;9.43;2.55;;;;;;;-145.01;100.00;64805.59;4993475;28;20489;-63
2021/08/26 09:53:15;;;;;;;10.07;2.53;;;;;;;-145.01;100.00;64805.59;4995410;28;20027;-63
2021/08/26 09:56:05;;;;;;;19.20;3.28;;;;;;;-145.01;100.00;64805.59;4994813;28;20034;-63
2021/08/26 09:58:34;;;;;;;10.35;2.90;;;;;;;-145.01;100.00;64805.59;4995115;28;20110;-63
2021/08/26 10:01:14;;;;;;;10.87;3.10;;;;;;;-145.01;100.00;64805.59;4994705;28;20485;-63
2021/08/26 10:03:40;;;;;;;11.20;3.03;;;;;;;-145.01;100.00;64805.59;4995074;28;20469;-63
2021/08/26 10:06:05;;;;;;;15.32;3.70;;;;;;;-145.01;100.00;64805.59;4993413;28;20401;-65
2021/08/26 10:08:31;;;;;;;12.95;4.20;;;;;;;-145.01;100.00;64805.59;4995193;28;20029;-66
2021/08/26 10:10:56;;;;;;;11.35;3.58;;;;;;;-145.01;100.00;64805.59;4993276;28;20042;-64
2021/08/26 10:13:22;;;;;;;19.63;3.50;;;;;;;-145.01;100.00;64805.59;4995003;28;20033;-65
2021/08/26 10:15:47;;;;;;;17.55;5.47;;;;;;;-145.01;100.00;64805.59;4993214;28;20531;-63
2021/08/26 10:18:19;;;;;;;19.85;4.45;;;;;;;-145.01;100.00;64805.59;4994716;28;20085;-64
2021/08/26 10:20:45;;;;;;;11.25;3.70;;;;;;;-145.01;100.00;64805.59;4994256;28;20475;-63
2021/08/26 10:23:10;;;;;;;13.90;4.38;;;;;;;-145.01;100.00;64805.59;4994631;28;20030;-63
2021/08/26 10:25:40;;;;;;;11.45;4.20;;;;;;;-145.01;100.00;64805.59;4976169;28;20030;-63
2021/08/26 10:28:06;;;;;;;;;;;;;;;-145.01;100.00;64805.59;4977888;28;20396;-63
2021/08/26 10:30:33;;;;;;;12.05;4.30;;;;;;;-145.01;100.00;64805.59;4994285;28;20372;-63
2021/08/26 10:33:11;;;;;;;10.35;4.63;;;;;;;-145.01;100.00;64805.59;4993202;28;20069;-63
2021/08/26 10:35:52;;;;;;;13.95;5.10;;;;;;;-145.01;100.00;64805.59;4993995;28;20069;-63
2021/08/26 10:38:22;;;;;;;16.00;5.82;;;;;;;-145.01;100.00;64805.59;4994310;28;20029;-63
2021/08/26 10:40:49;;;;;;;16.05;5.10;;;;;;;-145.01;100.00;64805.59;4976340;28;20038;-63
2021/08/26 10:43:37;;;;;;;16.27;5.10;;;;;;;-145.01;100.00;64805.59;4992689;28;20034;-63
2021/08/26 10:46:04;;;;;;;14.73;4.80;;;;;;;-145.01;100.00;64805.59;4993632;28;20042;-63
2021/08/26 10:48:29;;;;;;;11.55;4.45;;;;;;;-145.01;100.00;64805.59;4994505;28;20053;-63
2021/08/26 10:51:02;;;;;;;10.82;3.80;;;;;;;-145.01;100.00;64805.59;4993388;28;20115;-63
2021/08/26 10:53:28;;;;;;;19.98;4.65;;;;;;;-145.01;100.00;64805.59;4994063;28;20034;-63
2021/08/26 10:55:55;;;;;;;13.57;3.10;;;;;;;-145.01;100.00;64805.59;4993540;28;20046;-63
2021/08/26 10:58:21;;;;;;;10.20;3.33;;;;;;;-145.01;100.00;64805.59;4976622;28;20038;-63
2021/08/26 11:00:47;;;;;;;12.70;3.53;;;;;;;-145.01;100.00;64805.59;4993502;28;20034;-63
2021/08/26 11:03:33;;;;;;;18.33;3.10;;;;;;;-145.01;100.00;64805.59;4992538;28;20030;-63
2021/08/26 11:06:02;;;;;;;13.45;3.08;;;;;;;-145.01;100.00;64805.59;4993349;28;20050;-63